createdAt,value
2023-06-02T00:01:29.926Z,92717.13
2023-06-02T00:03:56.385Z,92716.72
2023-06-02T00:06:22.950Z,92715.38
2023-06-02T00:08:49.518Z,92715.16
2023-06-02T00:11:16.249Z,92712.31
2023-06-02T00:13:43.707Z,92714.06
2023-06-02T00:16:11.109Z,92714.81
2023-06-02T00:18:38.588Z,92715.72
2023-06-02T00:21:06.353Z,92721.00
2023-06-02T00:23:34.056Z,92717.56
2023-06-02T00:26:01.714Z,92708.72
2023-06-02T00:28:29.040Z,92714.53
2023-06-02T00:30:56.135Z,92717.19
2023-06-02T00:33:23.184Z,92701.88
2023-06-02T00:35:50.517Z,92709.31
2023-06-02T00:38:18.583Z,92705.34
2023-06-02T00:40:45.377Z,92702.28
2023-06-02T00:43:11.998Z,92703.34
2023-06-02T00:45:38.512Z,92703.94
2023-06-02T00:48:05.666Z,92701.84
2023-06-02T00:50:33.560Z,92701.63
2023-06-02T00:53:01.253Z,92699.84
2023-06-02T00:55:31.561Z,92702.47
2023-06-02T00:58:01.009Z,92702.06
2023-06-02T01:00:28.345Z,92698.13
2023-06-02T01:02:59.258Z,92699.47
2023-06-02T01:05:26.689Z,92691.53
2023-06-02T01:07:59.742Z,92691.34
2023-06-02T01:10:27.364Z,92692.75
2023-06-02T01:12:55.379Z,92693.91
2023-06-02T01:15:22.192Z,92683.88
2023-06-02T01:17:51.863Z,92692.69
2023-06-02T01:20:22.678Z,92687.75
2023-06-02T01:22:58.393Z,92688.66
2023-06-02T01:25:29.290Z,92692.69
2023-06-02T01:28:00.209Z,92689.09
2023-06-02T01:30:27.705Z,92685.63
2023-06-02T01:33:06.517Z,92683.81
2023-06-02T01:35:45.429Z,92684.09
2023-06-02T01:38:13.846Z,92680.41
2023-06-02T01:40:41.413Z,92673.81
2023-06-02T01:43:09.494Z,92680.78
2023-06-02T01:45:38.152Z,92676.09
2023-06-02T01:48:06.743Z,92680.31
2023-06-02T01:50:34.621Z,92671.13
2023-06-02T01:53:01.856Z,92682.22
2023-06-02T01:55:28.527Z,92680.41
2023-06-02T01:57:56.876Z,92679.63
2023-06-02T02:00:23.981Z,92684.06
2023-06-02T02:02:51.745Z,92683.00
2023-06-02T02:05:18.580Z,92675.16
2023-06-02T02:07:45.334Z,92681.00
2023-06-02T02:10:12.305Z,92683.09
2023-06-02T02:12:42.042Z,92678.38
2023-06-02T02:15:10.540Z,92672.34
2023-06-02T02:17:43.708Z,92681.25
2023-06-02T02:20:11.723Z,92676.25
2023-06-02T02:22:38.174Z,92670.53
2023-06-02T02:25:05.021Z,92669.97
2023-06-02T02:27:32.094Z,92672.16
2023-06-02T02:29:58.602Z,92668.53
2023-06-02T02:32:25.633Z,92672.03
2023-06-02T02:34:52.110Z,92672.84
2023-06-02T02:37:25.225Z,92662.84
2023-06-02T02:40:00.407Z,92674.69
2023-06-02T02:42:26.909Z,92671.84
2023-06-02T02:44:53.474Z,92678.16
2023-06-02T02:47:20.050Z,92678.44
2023-06-02T02:49:47.449Z,92681.38
2023-06-02T02:52:14.085Z,92680.56
2023-06-02T02:54:40.851Z,92678.81
2023-06-02T02:57:08.657Z,92678.88
2023-06-02T02:59:36.656Z,92675.47
2023-06-02T03:02:07.130Z,92667.31
2023-06-02T03:04:35.463Z,92676.53
2023-06-02T03:07:03.663Z,92678.66
2023-06-02T03:09:30.143Z,92675.22
2023-06-02T03:11:59.151Z,92673.59
2023-06-02T03:14:29.070Z,92676.03
2023-06-02T03:17:00.741Z,92674.66
2023-06-02T03:19:27.743Z,92674.44
2023-06-02T03:21:56.829Z,92677.84
2023-06-02T03:24:25.252Z,92682.09
2023-06-02T03:26:53.953Z,92676.34
2023-06-02T03:29:20.894Z,92677.19
2023-06-02T03:31:52.968Z,92671.47
2023-06-02T03:34:21.607Z,92674.13
2023-06-02T03:36:49.743Z,92672.81
2023-06-02T03:39:16.559Z,92676.78
2023-06-02T03:41:44.557Z,92677.53
2023-06-02T03:44:11.271Z,92682.28
2023-06-02T03:46:37.909Z,92678.06
2023-06-02T03:49:06.058Z,92682.56
2023-06-02T03:51:32.580Z,92673.84
2023-06-02T03:54:00.837Z,92674.09
2023-06-02T03:56:28.109Z,92675.66
2023-06-02T03:58:54.809Z,92676.47
2023-06-02T04:01:23.088Z,92687.31
2023-06-02T04:03:51.408Z,92691.78
2023-06-02T04:06:18.370Z,92687.56
2023-06-02T04:08:46.394Z,92690.44
2023-06-02T04:11:14.096Z,92686.28
2023-06-02T04:13:41.543Z,92691.31
2023-06-02T04:16:09.104Z,92690.75
2023-06-02T04:18:40.305Z,92693.34
2023-06-02T04:21:08.839Z,92699.19
2023-06-02T04:23:37.427Z,92690.28
2023-06-02T04:26:04.360Z,92690.00
2023-06-02T04:28:31.526Z,92693.41
2023-06-02T04:31:00.382Z,92697.13
2023-06-02T04:33:29.693Z,92691.56
2023-06-02T04:35:56.211Z,92697.59
2023-06-02T04:38:22.764Z,92689.44
2023-06-02T04:40:49.458Z,92700.78
2023-06-02T04:43:16.289Z,92690.75
2023-06-02T04:45:44.681Z,92688.91
2023-06-02T04:48:13.151Z,92697.88
2023-06-02T04:50:40.470Z,92693.38
2023-06-02T04:53:08.370Z,92695.47
2023-06-02T04:55:35.476Z,92699.63
2023-06-02T04:58:02.911Z,92695.88
2023-06-02T05:00:29.961Z,92698.81
2023-06-02T05:02:57.987Z,92706.38
2023-06-02T05:05:27.490Z,92706.94
2023-06-02T05:07:54.131Z,92701.88
2023-06-02T05:10:22.190Z,92701.00
2023-06-02T05:12:50.949Z,92704.66
2023-06-02T05:15:17.778Z,92695.13
2023-06-02T05:17:44.897Z,92695.06
2023-06-02T05:20:12.779Z,92698.16
2023-06-02T05:22:39.823Z,92696.72
2023-06-02T05:25:11.355Z,92695.31
2023-06-02T05:27:39.410Z,92693.44
2023-06-02T05:30:08.066Z,92690.41
2023-06-02T05:32:34.912Z,92700.84
2023-06-02T05:35:04.124Z,92703.41
2023-06-02T05:37:30.680Z,92708.63
2023-06-02T05:39:58.519Z,92710.16
2023-06-02T05:42:26.757Z,92702.69
2023-06-02T05:44:53.981Z,92705.50
2023-06-02T05:47:20.762Z,92699.38
2023-06-02T05:49:50.854Z,92695.16
2023-06-02T05:52:17.773Z,92694.94
2023-06-02T05:54:44.325Z,92705.50
2023-06-02T05:57:12.467Z,92700.88
2023-06-02T05:59:40.642Z,92701.38
2023-06-02T06:02:07.358Z,92699.53
2023-06-02T06:04:33.904Z,92705.00
2023-06-02T06:07:00.564Z,92699.69
2023-06-02T06:09:27.481Z,92700.03
2023-06-02T06:11:53.995Z,92702.47
2023-06-02T06:14:20.936Z,92696.56
2023-06-02T06:16:47.602Z,92697.00
2023-06-02T06:19:14.492Z,92697.13
2023-06-02T06:21:42.188Z,92692.06
2023-06-02T06:24:09.302Z,92688.75
2023-06-02T06:26:36.019Z,92691.88
2023-06-02T06:29:04.595Z,92690.72
2023-06-02T06:31:33.473Z,92691.78
2023-06-02T06:34:00.680Z,92692.53
2023-06-02T06:36:27.280Z,92693.97
2023-06-02T06:38:54.301Z,92683.59
2023-06-02T06:41:21.764Z,92696.53
2023-06-02T06:43:49.736Z,92686.56
2023-06-02T06:46:17.186Z,92689.03
2023-06-02T06:48:43.961Z,92692.88
2023-06-02T06:51:10.555Z,92687.69
2023-06-02T06:53:37.001Z,92681.50
2023-06-02T06:56:04.235Z,92680.63
2023-06-02T06:58:31.013Z,92682.63
2023-06-02T07:00:58.642Z,92684.09
2023-06-02T07:03:25.245Z,92686.34
2023-06-02T07:05:51.826Z,92684.34
2023-06-02T07:08:18.954Z,92682.72
2023-06-02T07:10:45.712Z,92686.81
2023-06-02T07:13:12.305Z,92676.81
2023-06-02T07:15:38.811Z,92684.16
2023-06-02T07:18:05.518Z,92677.41
2023-06-02T07:20:32.266Z,92679.84
2023-06-02T07:22:58.776Z,92679.75
2023-06-02T07:25:25.445Z,92693.69
2023-06-02T07:27:52.035Z,92690.91
2023-06-02T07:30:18.570Z,92685.81
2023-06-02T07:32:45.092Z,92689.78
2023-06-02T07:35:11.638Z,92686.03
2023-06-02T07:37:38.151Z,92689.69
2023-06-02T07:40:05.399Z,92686.44
2023-06-02T07:42:31.863Z,92686.66
2023-06-02T07:44:58.322Z,92694.53
2023-06-02T07:47:24.842Z,92692.22
2023-06-02T07:49:51.461Z,92695.84
2023-06-02T07:52:19.713Z,92696.94
2023-06-02T07:54:46.574Z,92699.34
2023-06-02T07:57:13.111Z,92700.66
2023-06-02T07:59:39.601Z,92692.91
2023-06-02T08:02:07.086Z,92701.84
2023-06-02T08:04:34.340Z,92694.53
2023-06-02T08:07:01.432Z,92701.88
2023-06-02T08:09:28.023Z,92693.31
2023-06-02T08:11:54.644Z,92698.00
2023-06-02T08:14:21.509Z,92695.72
2023-06-02T08:16:57.923Z,92692.94
2023-06-02T08:19:26.352Z,92696.06
2023-06-02T08:21:53.189Z,92690.03
2023-06-02T08:24:21.803Z,92700.22
2023-06-02T08:26:49.464Z,92695.22
2023-06-02T08:29:16.961Z,92695.88
2023-06-02T08:31:44.149Z,92695.13
2023-06-02T08:34:11.862Z,92692.16
2023-06-02T08:36:38.749Z,92690.94
2023-06-02T08:39:08.219Z,92694.25
2023-06-02T08:41:38.731Z,92682.50
2023-06-02T08:44:05.559Z,92692.41
2023-06-02T08:46:33.155Z,92696.00
2023-06-02T08:49:01.394Z,92694.00
2023-06-02T08:51:29.680Z,92693.50
2023-06-02T08:53:56.770Z,92692.94
2023-06-02T08:56:24.363Z,92687.31
2023-06-02T08:58:50.950Z,92689.69
2023-06-02T09:01:17.795Z,92698.88
2023-06-02T09:03:47.788Z,92698.59
2023-06-02T09:06:23.184Z,92694.66
2023-06-02T09:08:58.322Z,92698.91
2023-06-02T09:11:27.037Z,92699.88
2023-06-02T09:13:54.391Z,92697.97
2023-06-02T09:16:22.086Z,92697.19
2023-06-02T09:18:58.823Z,92705.97
2023-06-02T09:21:31.017Z,92696.88
2023-06-02T09:24:12.366Z,92698.44
2023-06-02T09:26:49.250Z,92707.53
2023-06-02T09:29:16.188Z,92698.44
2023-06-02T09:31:53.867Z,92699.72
2023-06-02T09:34:22.330Z,92695.47
2023-06-02T09:36:53.321Z,92695.78
2023-06-02T09:39:34.341Z,92703.44
2023-06-02T09:42:01.710Z,92704.41
2023-06-02T09:44:28.410Z,92709.69
2023-06-02T09:46:54.993Z,92699.63
2023-06-02T09:49:21.704Z,92705.94
2023-06-02T09:51:48.270Z,92706.88
2023-06-02T09:54:14.843Z,92707.16
2023-06-02T09:56:41.480Z,92700.72
2023-06-02T09:59:09.444Z,92700.66
2023-06-02T10:01:37.157Z,92700.34
2023-06-02T10:04:05.661Z,92701.75
2023-06-02T10:06:57.282Z,92708.94
2023-06-02T10:10:01.380Z,92700.13
2023-06-02T10:12:48.033Z,92700.25
2023-06-02T10:15:35.851Z,92702.56
2023-06-02T10:18:40.092Z,92708.00
2023-06-02T10:21:30.041Z,92706.16
2023-06-02T10:24:10.409Z,92703.44
2023-06-02T10:26:56.388Z,92698.81
2023-06-02T10:29:26.900Z,92695.09
2023-06-02T10:31:53.497Z,92693.44
2023-06-02T10:34:53.466Z,92700.81
2023-06-02T10:37:21.427Z,92693.75
2023-06-02T10:39:52.639Z,92694.06
2023-06-02T10:42:21.683Z,92693.34
2023-06-02T10:44:52.976Z,92686.63
2023-06-02T10:47:19.490Z,92689.72
2023-06-02T10:50:00.619Z,92693.88
2023-06-02T10:52:28.488Z,92695.16
2023-06-02T10:55:13.103Z,92694.94
2023-06-02T10:57:49.345Z,92687.16
2023-06-02T11:00:40.931Z,92690.25
2023-06-02T11:03:11.161Z,92689.34
2023-06-02T11:05:37.854Z,92695.31
2023-06-02T11:08:16.772Z,92687.03
2023-06-02T11:10:45.687Z,92685.38
2023-06-02T11:13:16.144Z,92687.88
2023-06-02T11:15:54.459Z,92683.50
2023-06-02T11:18:23.842Z,92681.94
2023-06-02T11:20:52.134Z,92688.56
2023-06-02T11:23:19.596Z,92684.47
2023-06-02T11:25:46.430Z,92682.50
2023-06-02T11:28:21.873Z,92675.66
2023-06-02T11:30:48.917Z,92675.06
2023-06-02T11:33:15.779Z,92672.09
2023-06-02T11:35:42.365Z,92678.00
2023-06-02T11:38:09.294Z,92677.38
2023-06-02T11:40:37.207Z,92672.56
2023-06-02T11:43:04.740Z,92671.00
2023-06-02T11:45:31.807Z,92655.19
2023-06-02T11:48:12.504Z,92661.31
2023-06-02T11:50:39.616Z,92657.97
2023-06-02T11:53:14.139Z,92656.03
2023-06-02T11:55:41.464Z,92660.28
2023-06-02T11:58:21.849Z,92655.41
2023-06-02T12:00:48.744Z,92649.56
2023-06-02T12:03:15.419Z,92653.47
2023-06-02T12:05:45.129Z,92652.38
2023-06-02T12:08:21.433Z,92649.66
2023-06-02T12:10:48.903Z,92649.59
2023-06-02T12:13:26.661Z,92648.19
2023-06-02T12:15:54.133Z,92646.25
2023-06-02T12:18:31.967Z,92649.91
2023-06-02T12:20:59.362Z,92647.31
2023-06-02T12:23:47.037Z,92644.91
2023-06-02T12:26:15.192Z,92647.41
2023-06-02T12:28:41.973Z,92637.78
2023-06-02T12:31:09.341Z,92635.50
2023-06-02T12:33:35.981Z,92633.13
2023-06-02T12:36:02.462Z,92642.28
2023-06-02T12:38:28.958Z,92644.97
2023-06-02T12:40:55.431Z,92644.94
2023-06-02T12:43:22.006Z,92641.31
2023-06-02T12:45:48.730Z,92642.44
2023-06-02T12:48:15.637Z,92636.78
2023-06-02T12:50:42.281Z,92644.44
2023-06-02T12:53:08.747Z,92640.56
2023-06-02T12:55:35.354Z,92635.84
2023-06-02T12:58:01.810Z,92643.38
2023-06-02T13:00:28.286Z,92635.81
2023-06-02T13:02:54.941Z,92645.00
2023-06-02T13:05:21.971Z,92637.31
2023-06-02T13:07:48.669Z,92643.25
2023-06-02T13:10:15.243Z,92634.06
2023-06-02T13:12:41.830Z,92634.31
2023-06-02T13:15:08.844Z,92639.69
2023-06-02T13:17:35.751Z,92638.00
2023-06-02T13:20:02.579Z,92638.84
2023-06-02T13:22:30.171Z,92637.47
2023-06-02T13:24:56.732Z,92627.47
2023-06-02T13:27:30.687Z,92628.34
2023-06-02T13:30:08.654Z,92640.06
2023-06-02T13:32:35.137Z,92637.00
2023-06-02T13:35:01.653Z,92627.69
2023-06-02T13:37:28.121Z,92628.44
2023-06-02T13:39:54.619Z,92623.34
2023-06-02T13:42:21.126Z,92624.22
2023-06-02T13:44:47.640Z,92626.66
2023-06-02T13:47:14.257Z,92624.69
2023-06-02T13:49:40.766Z,92615.88
2023-06-02T13:52:07.824Z,92617.56
2023-06-02T13:54:34.335Z,92611.28
2023-06-02T13:57:03.317Z,92617.31
2023-06-02T13:59:31.368Z,92609.25
2023-06-02T14:01:58.975Z,92606.81
2023-06-02T14:04:26.758Z,92618.94
2023-06-02T14:06:54.403Z,92623.13
2023-06-02T14:09:21.573Z,92621.94
2023-06-02T14:11:48.078Z,92623.13
2023-06-02T14:14:14.813Z,92655.41
2023-06-02T14:16:41.462Z,92628.47
2023-06-02T14:19:08.056Z,92612.84
2023-06-02T14:21:34.642Z,92607.81
2023-06-02T14:24:01.144Z,92609.69
2023-06-02T14:26:28.226Z,92608.13
2023-06-02T14:28:54.742Z,92595.00
2023-06-02T14:31:21.367Z,92601.88
2023-06-02T14:33:48.441Z,92609.28
2023-06-02T14:36:15.666Z,92599.00
2023-06-02T14:38:43.092Z,92605.53
2023-06-02T14:41:09.630Z,92606.53
2023-06-02T14:43:36.247Z,92599.28
2023-06-02T14:46:07.502Z,92591.75
2023-06-02T14:48:35.119Z,92594.84
2023-06-02T14:51:02.065Z,92597.34
2023-06-02T14:53:28.563Z,92599.84
2023-06-02T14:55:55.739Z,92590.97
2023-06-02T14:58:23.927Z,92583.97
2023-06-02T15:00:51.121Z,92583.72
2023-06-02T15:03:17.987Z,92582.91
2023-06-02T15:05:44.638Z,92581.09
2023-06-02T15:08:11.221Z,92573.38
2023-06-02T15:10:37.679Z,92581.13
2023-06-02T15:13:04.230Z,92577.50
2023-06-02T15:15:32.129Z,92579.69
2023-06-02T15:17:59.429Z,92581.44
2023-06-02T15:20:26.045Z,92573.94
2023-06-02T15:22:52.582Z,92576.72
2023-06-02T15:25:19.057Z,92579.53
2023-06-02T15:27:46.367Z,92578.00
2023-06-02T15:30:12.946Z,92574.91
2023-06-02T15:32:39.454Z,92569.50
2023-06-02T15:35:06.391Z,92576.59
2023-06-02T15:37:32.865Z,92576.50
2023-06-02T15:39:59.351Z,92573.59
2023-06-02T15:42:25.934Z,92566.09
2023-06-02T15:44:52.452Z,92563.31
2023-06-02T15:47:19.143Z,92569.91
2023-06-02T15:49:45.758Z,92565.56
2023-06-02T15:52:12.340Z,92565.81
2023-06-02T15:54:40.316Z,92568.75
2023-06-02T15:57:07.113Z,92570.41
2023-06-02T15:59:33.743Z,92566.56
2023-06-02T16:02:00.402Z,92575.91
2023-06-02T16:04:26.981Z,92570.22
2023-06-02T16:06:53.890Z,92568.94
2023-06-02T16:09:21.016Z,92570.81
2023-06-02T16:11:47.636Z,92578.88
2023-06-02T16:14:14.195Z,92574.84
2023-06-02T16:16:40.737Z,92575.47
2023-06-02T16:19:07.923Z,92578.19
2023-06-02T16:21:34.480Z,92585.13
2023-06-02T16:24:00.986Z,92573.84
2023-06-02T16:26:28.089Z,92576.63
2023-06-02T16:28:54.817Z,92578.41
2023-06-02T16:31:22.911Z,92582.09
2023-06-02T16:33:51.371Z,92579.16
2023-06-02T16:36:17.901Z,92580.78
2023-06-02T16:38:44.441Z,92568.72
2023-06-02T16:41:11.077Z,92574.88
2023-06-02T16:43:37.569Z,92583.88
2023-06-02T16:46:04.265Z,92582.34
2023-06-02T16:48:31.854Z,92579.19
2023-06-02T16:50:58.473Z,92579.91
2023-06-02T16:53:28.571Z,92577.19
2023-06-02T16:55:56.043Z,92574.34
2023-06-02T16:58:22.889Z,92580.69
2023-06-02T17:00:49.341Z,92577.59
2023-06-02T17:03:16.064Z,92576.06
2023-06-02T17:05:45.835Z,92584.09
2023-06-02T17:08:12.788Z,92578.84
2023-06-02T17:10:39.926Z,92581.09
2023-06-02T17:13:06.454Z,92567.75
2023-06-02T17:15:32.958Z,92581.28
2023-06-02T17:17:59.564Z,92576.09
2023-06-02T17:20:26.461Z,92577.38
2023-06-02T17:22:53.016Z,92580.94
2023-06-02T17:25:21.094Z,92586.75
2023-06-02T17:27:47.741Z,92583.03
2023-06-02T17:30:14.334Z,92586.00
2023-06-02T17:32:40.881Z,92590.00
2023-06-02T17:35:07.824Z,92584.09
2023-06-02T17:37:35.102Z,92589.91
2023-06-02T17:40:05.460Z,92590.28
2023-06-02T17:42:32.552Z,92589.94
2023-06-02T17:45:00.205Z,92595.66
2023-06-02T17:47:26.835Z,92597.91
2023-06-02T17:49:53.544Z,92596.34
2023-06-02T17:52:22.703Z,92594.09
2023-06-02T17:54:49.395Z,92601.81
2023-06-02T17:57:16.021Z,92591.63
2023-06-02T17:59:43.381Z,92601.59
2023-06-02T18:02:11.103Z,92598.38
2023-06-02T18:04:37.633Z,92597.66
2023-06-02T18:07:05.368Z,92608.59
2023-06-02T18:09:33.866Z,92601.00
2023-06-02T18:12:00.942Z,92620.03
2023-06-02T18:14:27.440Z,92616.63
2023-06-02T18:16:53.948Z,92620.91
2023-06-02T18:19:20.426Z,92613.34
2023-06-02T18:21:46.973Z,92614.63
2023-06-02T18:24:13.875Z,92623.00
2023-06-02T18:26:40.444Z,92622.50
2023-06-02T18:29:07.177Z,92627.69
2023-06-02T18:31:33.680Z,92624.84
2023-06-02T18:34:00.208Z,92628.75
2023-06-02T18:36:26.690Z,92626.97
2023-06-02T18:38:53.171Z,92632.34
2023-06-02T18:41:19.690Z,92634.72
2023-06-02T18:43:46.166Z,92640.94
2023-06-02T18:46:12.662Z,92647.22
2023-06-02T18:48:39.229Z,92642.94
2023-06-02T18:51:05.927Z,92647.19
2023-06-02T18:53:32.521Z,92647.47
2023-06-02T18:55:58.994Z,92646.69
2023-06-02T18:58:25.685Z,92649.28
2023-06-02T19:00:52.729Z,92655.84
2023-06-02T19:03:19.903Z,92660.22
2023-06-02T19:05:46.687Z,92657.34
2023-06-02T19:08:13.269Z,92662.84
2023-06-02T19:10:39.838Z,92659.66
2023-06-02T19:13:06.317Z,92667.69
2023-06-02T19:15:32.906Z,92669.47
2023-06-02T19:17:59.594Z,92671.75
2023-06-02T19:20:26.165Z,92666.19
2023-06-02T19:22:52.713Z,92674.44
2023-06-02T19:25:19.727Z,92673.72
2023-06-02T19:27:46.513Z,92681.56
2023-06-02T19:30:13.733Z,92680.63
2023-06-02T19:32:45.634Z,92684.84
2023-06-02T19:35:12.222Z,92685.06
2023-06-02T19:37:39.965Z,92688.34
2023-06-02T19:40:11.364Z,92688.31
2023-06-02T19:42:38.643Z,92693.03
2023-06-02T19:45:05.868Z,92695.88
2023-06-02T19:47:32.601Z,92702.78
2023-06-02T19:49:59.152Z,92701.88
2023-06-02T19:52:25.760Z,92703.03
2023-06-02T19:54:52.285Z,92700.56
2023-06-02T19:57:19.096Z,92711.00
2023-06-02T19:59:45.773Z,92708.63
2023-06-02T20:02:12.481Z,92711.63
2023-06-02T20:04:39.083Z,92722.41
2023-06-02T20:07:05.898Z,92722.25
2023-06-02T20:09:33.165Z,92717.56
2023-06-02T20:11:59.870Z,92722.63
2023-06-02T20:14:29.069Z,92723.25
2023-06-02T20:16:56.008Z,92735.66
2023-06-02T20:19:22.678Z,92729.22
2023-06-02T20:21:49.227Z,92735.56
2023-06-02T20:24:15.920Z,92742.47
2023-06-02T20:26:42.650Z,92740.78
2023-06-02T20:29:09.361Z,92733.00
2023-06-02T20:31:36.182Z,92746.16
2023-06-02T20:34:02.998Z,92742.41
2023-06-02T20:36:29.697Z,92744.75
2023-06-02T20:38:56.444Z,92737.72
2023-06-02T20:41:22.959Z,92741.03
2023-06-02T20:43:49.574Z,92738.53
2023-06-02T20:46:16.657Z,92738.69
2023-06-02T20:48:43.243Z,92743.25
2023-06-02T20:51:09.929Z,92736.84
2023-06-02T20:53:36.518Z,92749.69
2023-06-02T20:56:03.376Z,92749.19
2023-06-02T20:58:29.892Z,92743.88
2023-06-02T21:00:56.512Z,92746.66
2023-06-02T21:03:23.206Z,92747.75
2023-06-02T21:05:49.866Z,92743.25
2023-06-02T21:08:16.374Z,92747.44
2023-06-02T21:10:43.026Z,92741.97
2023-06-02T21:13:09.495Z,92745.09
2023-06-02T21:15:36.519Z,92741.19
2023-06-02T21:18:03.264Z,92738.38
2023-06-02T21:20:29.868Z,92747.75
2023-06-02T21:22:56.366Z,92747.44
2023-06-02T21:25:22.856Z,92745.88
2023-06-02T21:27:49.433Z,92747.09
2023-06-02T21:30:16.001Z,92742.88
2023-06-02T21:32:42.800Z,92741.59
2023-06-02T21:35:09.473Z,92746.28
2023-06-02T21:37:36.182Z,92742.00
2023-06-02T21:40:03.162Z,92734.22
2023-06-02T21:42:29.728Z,92742.66
2023-06-02T21:44:58.571Z,92739.25
2023-06-02T21:47:25.304Z,92737.97
2023-06-02T21:49:51.906Z,92733.06
2023-06-02T21:52:18.401Z,92737.31
2023-06-02T21:54:44.964Z,92732.00
2023-06-02T21:57:12.174Z,92730.69
2023-06-02T21:59:38.679Z,92733.44
2023-06-02T22:02:05.661Z,92726.38
2023-06-02T22:04:32.287Z,92728.09
2023-06-02T22:06:58.816Z,92732.31
2023-06-02T22:09:25.525Z,92734.81
2023-06-02T22:11:52.096Z,92739.81
2023-06-02T22:14:18.614Z,92730.44
2023-06-02T22:16:45.148Z,92731.03
2023-06-02T22:19:11.679Z,92726.44
2023-06-02T22:24:18.233Z,92724.84
2023-06-02T22:26:52.685Z,92730.28
2023-06-02T22:29:19.268Z,92728.69
2023-06-02T22:31:45.802Z,92727.53
2023-06-02T22:34:12.681Z,92732.56
2023-06-02T22:36:40.126Z,92726.25
2023-06-02T22:39:07.704Z,92727.06
2023-06-02T22:41:34.274Z,92734.28
2023-06-02T22:44:01.084Z,92725.56
2023-06-02T22:46:27.692Z,92726.81
2023-06-02T22:48:54.315Z,92724.16
2023-06-02T22:51:20.893Z,92720.59
2023-06-02T22:53:47.400Z,92721.19
2023-06-02T22:56:14.027Z,92721.22
2023-06-02T22:58:40.657Z,92717.59
2023-06-02T23:01:07.470Z,92725.50
2023-06-02T23:03:34.181Z,92718.22
2023-06-02T23:06:00.685Z,92716.34
2023-06-02T23:08:27.653Z,92716.94
2023-06-02T23:10:54.170Z,92719.69
2023-06-02T23:13:20.659Z,92717.16
2023-06-02T23:15:47.164Z,92721.31
2023-06-02T23:18:13.968Z,92715.81
2023-06-02T23:20:40.726Z,92715.81
2023-06-02T23:23:07.221Z,92712.78
2023-06-02T23:25:33.704Z,92713.13
2023-06-02T23:28:00.373Z,92706.84
2023-06-02T23:30:26.886Z,92715.69
2023-06-02T23:32:53.760Z,92712.53
2023-06-02T23:35:20.350Z,92716.66
2023-06-02T23:37:46.856Z,92714.69
2023-06-02T23:40:14.024Z,92707.91
2023-06-02T23:42:42.504Z,92712.53
2023-06-02T23:45:09.730Z,92708.41
2023-06-02T23:47:36.299Z,92718.31
2023-06-02T23:50:03.058Z,92718.88
2023-06-02T23:52:29.777Z,92712.91
2023-06-02T23:54:56.239Z,92716.34
2023-06-02T23:57:22.740Z,92714.88
2023-06-02T23:59:49.297Z,92718.41
